Terminal Aerodrome Forecast
Issued by NWS Sterling, VA

Current Version | Previous Version | Graphics & Text | Print | Product List | Glossary On
Versions: 1 2 3 4 5 6 7 8 9 10 11 12 13 14 15 16 17 18 19 20 21 22 23 24 25 26 27 28
000
FTUS41 KLWX 152300
TAFDCA
TAF
KDCA 152331Z 1600/1624 33019G28KT 5SM -RAPLSN SCT015 OVC050
     FM160200 33020G30KT P6SM BKN050
     FM160400 32018G25KT P6SM FEW250
     FM161200 36012G20KT P6SM SKC
     FM161800 36009KT P6SM SKC
     FM162300 06006KT P6SM SKC=

USA.gov is the U.S. government's official web portal to all federal, state and local government web resources and services.